sensor_id;sensor_type;location;lat;lon;timestamp;P1;durP1;ratioP1;P2;durP2;ratioP2
12719;SDS011;6424;48.520;11.228;2022-11-02T00:01:21;8.10;;;5.60;;
12719;SDS011;6424;48.520;11.228;2022-11-02T00:04:04;8.80;;;5.83;;
12719;SDS011;6424;48.520;11.228;2022-11-02T00:06:46;5.67;;;4.73;;
12719;SDS011;6424;48.520;11.228;2022-11-02T00:09:26;12.70;;;5.60;;
12719;SDS011;6424;48.520;11.228;2022-11-02T00:12:07;7.20;;;5.60;;
12719;SDS011;6424;48.520;11.228;2022-11-02T00:14:48;12.43;;;5.50;;
12719;SDS011;6424;48.520;11.228;2022-11-02T00:17:29;10.93;;;5.47;;
12719;SDS011;6424;48.520;11.228;2022-11-02T00:19:55;7.03;;;5.53;;
12719;SDS011;6424;48.520;11.228;2022-11-02T00:22:35;7.57;;;5.50;;
12719;SDS011;6424;48.520;11.228;2022-11-02T00:25:18;8.60;;;5.63;;
12719;SDS011;6424;48.520;11.228;2022-11-02T00:27:46;8.50;;;5.20;;
12719;SDS011;6424;48.520;11.228;2022-11-02T00:30:26;8.07;;;5.00;;
12719;SDS011;6424;48.520;11.228;2022-11-02T00:32:53;7.57;;;5.03;;
12719;SDS011;6424;48.520;11.228;2022-11-02T00:35:34;7.33;;;5.33;;
12719;SDS011;6424;48.520;11.228;2022-11-02T00:38:16;8.50;;;5.53;;
12719;SDS011;6424;48.520;11.228;2022-11-02T00:40:57;6.87;;;5.40;;
12719;SDS011;6424;48.520;11.228;2022-11-02T00:43:23;5.67;;;5.07;;
12719;SDS011;6424;48.520;11.228;2022-11-02T00:45:49;8.53;;;5.47;;
12719;SDS011;6424;48.520;11.228;2022-11-02T00:48:15;6.90;;;5.20;;
12719;SDS011;6424;48.520;11.228;2022-11-02T00:50:56;12.07;;;6.00;;
12719;SDS011;6424;48.520;11.228;2022-11-02T00:53:36;7.13;;;6.23;;
12719;SDS011;6424;48.520;11.228;2022-11-02T00:56:17;7.63;;;5.53;;
12719;SDS011;6424;48.520;11.228;2022-11-02T00:58:43;8.77;;;5.10;;
12719;SDS011;6424;48.520;11.228;2022-11-02T01:01:09;9.17;;;6.73;;
12719;SDS011;6424;48.520;11.228;2022-11-02T01:03:50;8.77;;;6.10;;
12719;SDS011;6424;48.520;11.228;2022-11-02T01:06:31;10.83;;;6.53;;
12719;SDS011;6424;48.520;11.228;2022-11-02T01:09:13;12.57;;;6.57;;
12719;SDS011;6424;48.520;11.228;2022-11-02T01:11:40;8.87;;;5.73;;
12719;SDS011;6424;48.520;11.228;2022-11-02T01:14:21;9.20;;;6.00;;
12719;SDS011;6424;48.520;11.228;2022-11-02T01:17:02;7.50;;;6.03;;
12719;SDS011;6424;48.520;11.228;2022-11-02T01:19:43;8.93;;;6.37;;
12719;SDS011;6424;48.520;11.228;2022-11-02T01:22:24;8.80;;;6.27;;
12719;SDS011;6424;48.520;11.228;2022-11-02T01:25:05;11.23;;;6.70;;
12719;SDS011;6424;48.520;11.228;2022-11-02T01:27:47;11.97;;;6.80;;
12719;SDS011;6424;48.520;11.228;2022-11-02T01:30:27;8.37;;;6.87;;
12719;SDS011;6424;48.520;11.228;2022-11-02T01:33:08;10.37;;;8.13;;
12719;SDS011;6424;48.520;11.228;2022-11-02T01:35:49;12.33;;;8.20;;
12719;SDS011;6424;48.520;11.228;2022-11-02T01:38:31;12.03;;;7.43;;
12719;SDS011;6424;48.520;11.228;2022-11-02T01:41:12;9.67;;;6.70;;
12719;SDS011;6424;48.520;11.228;2022-11-02T01:43:54;10.57;;;7.53;;
12719;SDS011;6424;48.520;11.228;2022-11-02T01:46:41;13.17;;;8.00;;
12719;SDS011;6424;48.520;11.228;2022-11-02T01:49:25;9.87;;;7.23;;
12719;SDS011;6424;48.520;11.228;2022-11-02T01:52:08;10.30;;;7.00;;
12719;SDS011;6424;48.520;11.228;2022-11-02T01:54:58;9.13;;;6.80;;
12719;SDS011;6424;48.520;11.228;2022-11-02T01:57:45;10.73;;;7.90;;
12719;SDS011;6424;48.520;11.228;2022-11-02T02:00:31;12.63;;;7.97;;
12719;SDS011;6424;48.520;11.228;2022-11-02T02:03:13;11.43;;;8.13;;
12719;SDS011;6424;48.520;11.228;2022-11-02T02:05:46;9.60;;;7.70;;
12719;SDS011;6424;48.520;11.228;2022-11-02T02:08:18;13.10;;;7.83;;
12719;SDS011;6424;48.520;11.228;2022-11-02T02:11:00;10.87;;;7.83;;
12719;SDS011;6424;48.520;11.228;2022-11-02T02:13:41;10.47;;;7.53;;
12719;SDS011;6424;48.520;11.228;2022-11-02T02:19:31;11.23;;;7.87;;
12719;SDS011;6424;48.520;11.228;2022-11-02T02:28:32;12.97;;;8.03;;
12719;SDS011;6424;48.520;11.228;2022-11-02T02:31:27;12.37;;;7.87;;
12719;SDS011;6424;48.520;11.228;2022-11-02T02:34:18;12.53;;;7.80;;
12719;SDS011;6424;48.520;11.228;2022-11-02T02:37:08;10.33;;;7.53;;
12719;SDS011;6424;48.520;11.228;2022-11-02T02:40:02;10.10;;;7.77;;
12719;SDS011;6424;48.520;11.228;2022-11-02T02:42:54;10.50;;;8.00;;
12719;SDS011;6424;48.520;11.228;2022-11-02T02:45:45;12.67;;;7.97;;
12719;SDS011;6424;48.520;11.228;2022-11-02T02:48:33;9.07;;;7.93;;
12719;SDS011;6424;48.520;11.228;2022-11-02T02:51:21;11.40;;;8.33;;
12719;SDS011;6424;48.520;11.228;2022-11-02T02:54:08;9.60;;;7.37;;
12719;SDS011;6424;48.520;11.228;2022-11-02T02:56:56;11.10;;;8.53;;
12719;SDS011;6424;48.520;11.228;2022-11-02T02:59:43;13.87;;;8.70;;
12719;SDS011;6424;48.520;11.228;2022-11-02T03:02:27;10.87;;;8.33;;
12719;SDS011;6424;48.520;11.228;2022-11-02T03:04:56;12.53;;;8.20;;
12719;SDS011;6424;48.520;11.228;2022-11-02T03:07:37;12.30;;;8.50;;
12719;SDS011;6424;48.520;11.228;2022-11-02T03:11:01;10.93;;;7.97;;
12719;SDS011;6424;48.520;11.228;2022-11-02T03:16:26;11.20;;;8.30;;
12719;SDS011;6424;48.520;11.228;2022-11-02T03:22:31;12.57;;;7.90;;
12719;SDS011;6424;48.520;11.228;2022-11-02T03:28:26;11.57;;;8.07;;
12719;SDS011;6424;48.520;11.228;2022-11-02T03:34:03;10.93;;;7.30;;
12719;SDS011;6424;48.520;11.228;2022-11-02T03:42:43;9.17;;;6.37;;
12719;SDS011;6424;48.520;11.228;2022-11-02T03:45:28;7.27;;;6.00;;
12719;SDS011;6424;48.520;11.228;2022-11-02T03:48:14;6.87;;;5.90;;
12719;SDS011;6424;48.520;11.228;2022-11-02T03:50:59;8.90;;;5.30;;
12719;SDS011;6424;48.520;11.228;2022-11-02T03:53:45;6.43;;;5.60;;
12719;SDS011;6424;48.520;11.228;2022-11-02T03:56:31;7.63;;;5.83;;
12719;SDS011;6424;48.520;11.228;2022-11-02T03:59:16;11.13;;;6.07;;
12719;SDS011;6424;48.520;11.228;2022-11-02T04:01:43;8.60;;;5.40;;
12719;SDS011;6424;48.520;11.228;2022-11-02T04:04:25;6.97;;;5.10;;
12719;SDS011;6424;48.520;11.228;2022-11-02T04:07:06;9.60;;;6.13;;
12719;SDS011;6424;48.520;11.228;2022-11-02T04:09:47;7.30;;;5.10;;
12719;SDS011;6424;48.520;11.228;2022-11-02T04:12:28;8.50;;;5.20;;
12719;SDS011;6424;48.520;11.228;2022-11-02T04:15:27;6.97;;;5.40;;
12719;SDS011;6424;48.520;11.228;2022-11-02T04:18:08;7.70;;;4.90;;
12719;SDS011;6424;48.520;11.228;2022-11-02T04:21:07;5.03;;;4.53;;
12719;SDS011;6424;48.520;11.228;2022-11-02T04:23:48;6.53;;;4.80;;
12719;SDS011;6424;48.520;11.228;2022-11-02T04:26:47;6.07;;;4.70;;
12719;SDS011;6424;48.520;11.228;2022-11-02T04:29:27;5.80;;;4.37;;
12719;SDS011;6424;48.520;11.228;2022-11-02T04:31:53;6.10;;;4.30;;
12719;SDS011;6424;48.520;11.228;2022-11-02T04:34:34;5.40;;;4.57;;
12719;SDS011;6424;48.520;11.228;2022-11-02T04:37:00;12.10;;;4.40;;
12719;SDS011;6424;48.520;11.228;2022-11-02T04:39:40;6.53;;;4.43;;
12719;SDS011;6424;48.520;11.228;2022-11-02T04:42:21;4.70;;;3.47;;
12719;SDS011;6424;48.520;11.228;2022-11-02T04:45:02;6.63;;;4.57;;
12719;SDS011;6424;48.520;11.228;2022-11-02T04:47:43;6.23;;;4.50;;
12719;SDS011;6424;48.520;11.228;2022-11-02T04:50:24;6.17;;;3.87;;
12719;SDS011;6424;48.520;11.228;2022-11-02T04:53:05;8.40;;;4.30;;
12719;SDS011;6424;48.520;11.228;2022-11-02T04:55:49;5.73;;;4.40;;
12719;SDS011;6424;48.520;11.228;2022-11-02T04:58:29;8.23;;;4.93;;
12719;SDS011;6424;48.520;11.228;2022-11-02T05:01:11;5.53;;;4.57;;
12719;SDS011;6424;48.520;11.228;2022-11-02T05:03:54;8.43;;;5.23;;
12719;SDS011;6424;48.520;11.228;2022-11-02T05:06:36;6.63;;;4.90;;
12719;SDS011;6424;48.520;11.228;2022-11-02T05:09:16;8.67;;;4.93;;
12719;SDS011;6424;48.520;11.228;2022-11-02T05:11:57;6.23;;;4.40;;
12719;SDS011;6424;48.520;11.228;2022-11-02T05:14:38;5.33;;;4.30;;
12719;SDS011;6424;48.520;11.228;2022-11-02T05:17:19;5.43;;;4.17;;
12719;SDS011;6424;48.520;11.228;2022-11-02T05:20:00;5.13;;;4.20;;
12719;SDS011;6424;48.520;11.228;2022-11-02T05:22:41;5.23;;;4.07;;
12719;SDS011;6424;48.520;11.228;2022-11-02T05:25:22;6.27;;;4.70;;
12719;SDS011;6424;48.520;11.228;2022-11-02T05:28:03;5.40;;;4.00;;
12719;SDS011;6424;48.520;11.228;2022-11-02T05:30:44;5.17;;;3.97;;
12719;SDS011;6424;48.520;11.228;2022-11-02T05:33:26;8.07;;;4.33;;
12719;SDS011;6424;48.520;11.228;2022-11-02T05:36:08;7.27;;;4.33;;
12719;SDS011;6424;48.520;11.228;2022-11-02T05:38:53;8.53;;;4.10;;
12719;SDS011;6424;48.520;11.228;2022-11-02T05:41:35;7.17;;;4.20;;
12719;SDS011;6424;48.520;11.228;2022-11-02T05:44:15;6.77;;;3.77;;
12719;SDS011;6424;48.520;11.228;2022-11-02T05:46:56;6.27;;;3.77;;
12719;SDS011;6424;48.520;11.228;2022-11-02T05:49:37;4.87;;;3.40;;
12719;SDS011;6424;48.520;11.228;2022-11-02T05:52:17;7.73;;;3.57;;
12719;SDS011;6424;48.520;11.228;2022-11-02T05:54:58;4.47;;;3.33;;
12719;SDS011;6424;48.520;11.228;2022-11-02T05:57:39;4.80;;;3.23;;
12719;SDS011;6424;48.520;11.228;2022-11-02T06:00:20;5.20;;;3.40;;
12719;SDS011;6424;48.520;11.228;2022-11-02T06:03:03;4.93;;;3.70;;
12719;SDS011;6424;48.520;11.228;2022-11-02T06:05:44;4.87;;;3.57;;
12719;SDS011;6424;48.520;11.228;2022-11-02T06:08:25;5.27;;;3.70;;
12719;SDS011;6424;48.520;11.228;2022-11-02T06:11:07;5.10;;;3.60;;
12719;SDS011;6424;48.520;11.228;2022-11-02T06:13:50;5.40;;;3.50;;
12719;SDS011;6424;48.520;11.228;2022-11-02T06:16:31;4.27;;;3.30;;
12719;SDS011;6424;48.520;11.228;2022-11-02T06:19:11;6.00;;;3.93;;
12719;SDS011;6424;48.520;11.228;2022-11-02T06:21:52;5.37;;;3.93;;
12719;SDS011;6424;48.520;11.228;2022-11-02T06:24:34;4.70;;;3.50;;
12719;SDS011;6424;48.520;11.228;2022-11-02T06:27:15;5.90;;;3.70;;
12719;SDS011;6424;48.520;11.228;2022-11-02T06:29:56;4.77;;;3.93;;
12719;SDS011;6424;48.520;11.228;2022-11-02T06:32:36;6.47;;;3.83;;
12719;SDS011;6424;48.520;11.228;2022-11-02T06:35:18;5.47;;;3.60;;
12719;SDS011;6424;48.520;11.228;2022-11-02T06:38:00;5.87;;;4.00;;
12719;SDS011;6424;48.520;11.228;2022-11-02T06:40:41;4.80;;;4.23;;
12719;SDS011;6424;48.520;11.228;2022-11-02T06:43:22;5.43;;;4.33;;
12719;SDS011;6424;48.520;11.228;2022-11-02T06:46:03;5.87;;;4.87;;
12719;SDS011;6424;48.520;11.228;2022-11-02T06:48:45;6.10;;;4.40;;
12719;SDS011;6424;48.520;11.228;2022-11-02T06:51:27;6.50;;;4.70;;
12719;SDS011;6424;48.520;11.228;2022-11-02T06:54:07;6.70;;;4.70;;
12719;SDS011;6424;48.520;11.228;2022-11-02T06:56:48;9.27;;;4.73;;
12719;SDS011;6424;48.520;11.228;2022-11-02T06:59:29;7.10;;;5.10;;
12719;SDS011;6424;48.520;11.228;2022-11-02T07:02:10;10.63;;;5.20;;
12719;SDS011;6424;48.520;11.228;2022-11-02T07:04:50;7.50;;;4.80;;
12719;SDS011;6424;48.520;11.228;2022-11-02T07:07:31;8.03;;;4.63;;
12719;SDS011;6424;48.520;11.228;2022-11-02T07:10:12;8.03;;;5.50;;
12719;SDS011;6424;48.520;11.228;2022-11-02T07:12:54;10.20;;;6.40;;
12719;SDS011;6424;48.520;11.228;2022-11-02T07:15:36;11.53;;;7.77;;
12719;SDS011;6424;48.520;11.228;2022-11-02T07:18:16;8.87;;;6.80;;
12719;SDS011;6424;48.520;11.228;2022-11-02T07:20:57;8.70;;;6.60;;
12719;SDS011;6424;48.520;11.228;2022-11-02T07:23:38;10.13;;;5.40;;
12719;SDS011;6424;48.520;11.228;2022-11-02T07:26:19;9.03;;;4.77;;
12719;SDS011;6424;48.520;11.228;2022-11-02T07:29:00;6.93;;;5.60;;
12719;SDS011;6424;48.520;11.228;2022-11-02T07:31:41;8.13;;;5.13;;
12719;SDS011;6424;48.520;11.228;2022-11-02T07:34:07;6.90;;;4.87;;
12719;SDS011;6424;48.520;11.228;2022-11-02T07:36:47;7.63;;;5.10;;
12719;SDS011;6424;48.520;11.228;2022-11-02T07:39:13;7.70;;;5.77;;
12719;SDS011;6424;48.520;11.228;2022-11-02T07:41:39;9.57;;;5.73;;
12719;SDS011;6424;48.520;11.228;2022-11-02T07:44:19;9.97;;;6.43;;
12719;SDS011;6424;48.520;11.228;2022-11-02T07:46:45;9.50;;;6.10;;
12719;SDS011;6424;48.520;11.228;2022-11-02T07:49:26;7.83;;;5.63;;
12719;SDS011;6424;48.520;11.228;2022-11-02T07:52:07;7.13;;;5.50;;
12719;SDS011;6424;48.520;11.228;2022-11-02T07:54:48;7.83;;;4.67;;
12719;SDS011;6424;48.520;11.228;2022-11-02T07:57:28;6.60;;;3.80;;
12719;SDS011;6424;48.520;11.228;2022-11-02T08:00:10;6.53;;;4.43;;
12719;SDS011;6424;48.520;11.228;2022-11-02T08:02:57;6.47;;;3.97;;
12719;SDS011;6424;48.520;11.228;2022-11-02T08:05:40;7.27;;;3.50;;
12719;SDS011;6424;48.520;11.228;2022-11-02T08:08:22;6.80;;;3.80;;
12719;SDS011;6424;48.520;11.228;2022-11-02T08:11:05;6.50;;;3.60;;
12719;SDS011;6424;48.520;11.228;2022-11-02T08:13:47;7.23;;;3.60;;
12719;SDS011;6424;48.520;11.228;2022-11-02T08:16:29;6.70;;;3.83;;
12719;SDS011;6424;48.520;11.228;2022-11-02T08:19:10;5.27;;;3.57;;
12719;SDS011;6424;48.520;11.228;2022-11-02T08:21:50;5.53;;;3.67;;
12719;SDS011;6424;48.520;11.228;2022-11-02T08:24:32;5.40;;;3.77;;
12719;SDS011;6424;48.520;11.228;2022-11-02T08:26:57;8.70;;;4.10;;
12719;SDS011;6424;48.520;11.228;2022-11-02T08:29:38;8.57;;;4.27;;
12719;SDS011;6424;48.520;11.228;2022-11-02T08:32:19;6.90;;;4.00;;
12719;SDS011;6424;48.520;11.228;2022-11-02T08:34:45;5.83;;;4.27;;
12719;SDS011;6424;48.520;11.228;2022-11-02T08:37:25;7.30;;;4.83;;
12719;SDS011;6424;48.520;11.228;2022-11-02T08:40:06;6.10;;;3.97;;
12719;SDS011;6424;48.520;11.228;2022-11-02T08:42:33;6.07;;;4.47;;
12719;SDS011;6424;48.520;11.228;2022-11-02T08:45:14;9.73;;;4.30;;
12719;SDS011;6424;48.520;11.228;2022-11-02T08:47:40;7.57;;;3.87;;
12719;SDS011;6424;48.520;11.228;2022-11-02T08:50:21;7.93;;;4.20;;
12719;SDS011;6424;48.520;11.228;2022-11-02T08:53:04;5.57;;;3.80;;
12719;SDS011;6424;48.520;11.228;2022-11-02T08:55:45;5.53;;;4.20;;
12719;SDS011;6424;48.520;11.228;2022-11-02T08:58:26;6.53;;;3.67;;
12719;SDS011;6424;48.520;11.228;2022-11-02T09:01:07;7.03;;;3.93;;
12719;SDS011;6424;48.520;11.228;2022-11-02T09:03:48;5.70;;;3.63;;
12719;SDS011;6424;48.520;11.228;2022-11-02T09:06:28;5.87;;;4.50;;
12719;SDS011;6424;48.520;11.228;2022-11-02T09:09:09;7.70;;;3.97;;
12719;SDS011;6424;48.520;11.228;2022-11-02T09:11:50;7.17;;;4.10;;
12719;SDS011;6424;48.520;11.228;2022-11-02T09:14:31;7.83;;;4.47;;
12719;SDS011;6424;48.520;11.228;2022-11-02T09:17:11;7.87;;;4.03;;
12719;SDS011;6424;48.520;11.228;2022-11-02T09:19:52;10.93;;;4.40;;
12719;SDS011;6424;48.520;11.228;2022-11-02T09:22:18;7.67;;;3.60;;
12719;SDS011;6424;48.520;11.228;2022-11-02T09:24:59;7.33;;;3.30;;
12719;SDS011;6424;48.520;11.228;2022-11-02T09:27:40;5.97;;;3.40;;
12719;SDS011;6424;48.520;11.228;2022-11-02T09:30:22;5.30;;;3.83;;
12719;SDS011;6424;48.520;11.228;2022-11-02T09:33:05;7.80;;;3.73;;
12719;SDS011;6424;48.520;11.228;2022-11-02T09:35:32;5.53;;;3.07;;
12719;SDS011;6424;48.520;11.228;2022-11-02T09:38:16;6.90;;;3.10;;
12719;SDS011;6424;48.520;11.228;2022-11-02T09:41:01;5.60;;;3.50;;
12719;SDS011;6424;48.520;11.228;2022-11-02T09:44:02;8.23;;;3.20;;
12719;SDS011;6424;48.520;11.228;2022-11-02T09:46:47;8.40;;;3.30;;
12719;SDS011;6424;48.520;11.228;2022-11-02T09:49:28;6.53;;;3.17;;
12719;SDS011;6424;48.520;11.228;2022-11-02T09:52:12;6.80;;;2.90;;
12719;SDS011;6424;48.520;11.228;2022-11-02T09:54:52;6.80;;;2.37;;
12719;SDS011;6424;48.520;11.228;2022-11-02T09:57:35;8.17;;;2.70;;
12719;SDS011;6424;48.520;11.228;2022-11-02T10:00:17;3.67;;;2.17;;
12719;SDS011;6424;48.520;11.228;2022-11-02T10:11:44;7.80;;;2.23;;
12719;SDS011;6424;48.520;11.228;2022-11-02T10:14:34;4.93;;;1.87;;
12719;SDS011;6424;48.520;11.228;2022-11-02T10:17:23;7.73;;;2.03;;
12719;SDS011;6424;48.520;11.228;2022-11-02T10:20:10;4.27;;;1.80;;
12719;SDS011;6424;48.520;11.228;2022-11-02T10:23:20;4.63;;;1.80;;
12719;SDS011;6424;48.520;11.228;2022-11-02T10:26:17;7.13;;;1.57;;
12719;SDS011;6424;48.520;11.228;2022-11-02T10:29:03;4.97;;;1.27;;
12719;SDS011;6424;48.520;11.228;2022-11-02T10:31:57;2.83;;;1.17;;
12719;SDS011;6424;48.520;11.228;2022-11-02T10:34:38;4.50;;;1.30;;
12719;SDS011;6424;48.520;11.228;2022-11-02T10:37:27;4.60;;;1.20;;
12719;SDS011;6424;48.520;11.228;2022-11-02T10:43:32;4.87;;;1.63;;
12719;SDS011;6424;48.520;11.228;2022-11-02T10:46:36;2.67;;;1.50;;
12719;SDS011;6424;48.520;11.228;2022-11-02T10:49:56;4.70;;;1.80;;
12719;SDS011;6424;48.520;11.228;2022-11-02T10:52:43;3.13;;;1.47;;
12719;SDS011;6424;48.520;11.228;2022-11-02T10:55:26;3.77;;;1.13;;
12719;SDS011;6424;48.520;11.228;2022-11-02T10:58:14;4.23;;;1.20;;
12719;SDS011;6424;48.520;11.228;2022-11-02T11:00:44;4.23;;;1.13;;
12719;SDS011;6424;48.520;11.228;2022-11-02T11:03:26;4.23;;;1.00;;
12719;SDS011;6424;48.520;11.228;2022-11-02T11:05:56;5.43;;;1.20;;
12719;SDS011;6424;48.520;11.228;2022-11-02T11:08:44;2.27;;;1.20;;
12719;SDS011;6424;48.520;11.228;2022-11-02T11:11:30;3.83;;;1.40;;
12719;SDS011;6424;48.520;11.228;2022-11-02T11:14:16;2.57;;;1.00;;
12719;SDS011;6424;48.520;11.228;2022-11-02T11:17:00;3.60;;;1.10;;
12719;SDS011;6424;48.520;11.228;2022-11-02T11:19:46;3.50;;;1.00;;
12719;SDS011;6424;48.520;11.228;2022-11-02T11:22:34;3.77;;;1.27;;
12719;SDS011;6424;48.520;11.228;2022-11-02T11:25:21;3.50;;;1.50;;
12719;SDS011;6424;48.520;11.228;2022-11-02T11:28:37;4.50;;;1.30;;
12719;SDS011;6424;48.520;11.228;2022-11-02T11:31:20;1.93;;;1.10;;
12719;SDS011;6424;48.520;11.228;2022-11-02T11:34:01;4.20;;;1.20;;
12719;SDS011;6424;48.520;11.228;2022-11-02T11:36:42;4.27;;;1.30;;
12719;SDS011;6424;48.520;11.228;2022-11-02T11:39:25;2.57;;;1.17;;
12719;SDS011;6424;48.520;11.228;2022-11-02T11:42:16;2.57;;;1.03;;
12719;SDS011;6424;48.520;11.228;2022-11-02T11:44:53;5.13;;;1.50;;
12719;SDS011;6424;48.520;11.228;2022-11-02T11:47:38;3.07;;;1.10;;
12719;SDS011;6424;48.520;11.228;2022-11-02T11:50:21;3.33;;;1.47;;
12719;SDS011;6424;48.520;11.228;2022-11-02T11:53:10;3.30;;;1.23;;
12719;SDS011;6424;48.520;11.228;2022-11-02T11:56:02;6.77;;;1.40;;
12719;SDS011;6424;48.520;11.228;2022-11-02T11:58:49;5.00;;;1.27;;
12719;SDS011;6424;48.520;11.228;2022-11-02T12:01:37;2.80;;;1.70;;
12719;SDS011;6424;48.520;11.228;2022-11-02T12:04:33;2.93;;;1.17;;
12719;SDS011;6424;48.520;11.228;2022-11-02T12:10:03;6.03;;;1.20;;
12719;SDS011;6424;48.520;11.228;2022-11-02T12:15:45;4.87;;;1.40;;
12719;SDS011;6424;48.520;11.228;2022-11-02T12:44:34;4.17;;;1.50;;
12719;SDS011;6424;48.520;11.228;2022-11-02T12:47:33;4.23;;;1.20;;
12719;SDS011;6424;48.520;11.228;2022-11-02T12:50:18;5.23;;;1.57;;
12719;SDS011;6424;48.520;11.228;2022-11-02T12:56:02;5.37;;;1.40;;
12719;SDS011;6424;48.520;11.228;2022-11-02T12:58:46;2.60;;;1.53;;
12719;SDS011;6424;48.520;11.228;2022-11-02T13:01:29;4.77;;;1.60;;
12719;SDS011;6424;48.520;11.228;2022-11-02T13:07:08;4.00;;;1.37;;
12719;SDS011;6424;48.520;11.228;2022-11-02T13:09:53;4.90;;;1.30;;
12719;SDS011;6424;48.520;11.228;2022-11-02T13:12:42;3.33;;;1.30;;
12719;SDS011;6424;48.520;11.228;2022-11-02T13:15:25;4.00;;;1.40;;
12719;SDS011;6424;48.520;11.228;2022-11-02T13:18:17;5.10;;;1.50;;
12719;SDS011;6424;48.520;11.228;2022-11-02T13:21:08;4.83;;;1.47;;
12719;SDS011;6424;48.520;11.228;2022-11-02T13:23:53;4.23;;;1.60;;
12719;SDS011;6424;48.520;11.228;2022-11-02T13:26:38;3.47;;;1.37;;
12719;SDS011;6424;48.520;11.228;2022-11-02T13:29:26;5.57;;;1.50;;
12719;SDS011;6424;48.520;11.228;2022-11-02T13:32:45;4.63;;;1.30;;
12719;SDS011;6424;48.520;11.228;2022-11-02T13:35:49;3.47;;;1.30;;
12719;SDS011;6424;48.520;11.228;2022-11-02T13:49:58;5.73;;;2.30;;
12719;SDS011;6424;48.520;11.228;2022-11-02T13:52:44;6.40;;;1.80;;
12719;SDS011;6424;48.520;11.228;2022-11-02T13:55:52;5.40;;;1.47;;
12719;SDS011;6424;48.520;11.228;2022-11-02T13:58:37;3.63;;;1.13;;
12719;SDS011;6424;48.520;11.228;2022-11-02T14:01:33;6.30;;;1.30;;
12719;SDS011;6424;48.520;11.228;2022-11-02T14:04:18;5.77;;;1.87;;
12719;SDS011;6424;48.520;11.228;2022-11-02T14:06:59;3.27;;;1.23;;
12719;SDS011;6424;48.520;11.228;2022-11-02T14:09:43;5.43;;;1.50;;
12719;SDS011;6424;48.520;11.228;2022-11-02T14:12:25;5.40;;;1.47;;
12719;SDS011;6424;48.520;11.228;2022-11-02T14:20:43;4.60;;;1.20;;
12719;SDS011;6424;48.520;11.228;2022-11-02T14:23:34;4.83;;;1.30;;
12719;SDS011;6424;48.520;11.228;2022-11-02T14:26:29;4.33;;;1.50;;
12719;SDS011;6424;48.520;11.228;2022-11-02T14:29:34;3.87;;;1.30;;
12719;SDS011;6424;48.520;11.228;2022-11-02T14:43:59;4.10;;;1.20;;
12719;SDS011;6424;48.520;11.228;2022-11-02T14:47:05;3.53;;;1.30;;
12719;SDS011;6424;48.520;11.228;2022-11-02T14:52:58;4.13;;;1.43;;
12719;SDS011;6424;48.520;11.228;2022-11-02T14:55:50;3.50;;;1.30;;
12719;SDS011;6424;48.520;11.228;2022-11-02T14:58:37;7.17;;;1.70;;
12719;SDS011;6424;48.520;11.228;2022-11-02T15:01:20;4.37;;;1.47;;
12719;SDS011;6424;48.520;11.228;2022-11-02T15:04:05;3.67;;;1.60;;
12719;SDS011;6424;48.520;11.228;2022-11-02T15:06:54;3.53;;;1.27;;
12719;SDS011;6424;48.520;11.228;2022-11-02T15:09:50;5.37;;;1.37;;
12719;SDS011;6424;48.520;11.228;2022-11-02T15:12:34;4.43;;;1.13;;
12719;SDS011;6424;48.520;11.228;2022-11-02T15:15:37;4.80;;;1.47;;
12719;SDS011;6424;48.520;11.228;2022-11-02T15:24:05;6.30;;;1.87;;
12719;SDS011;6424;48.520;11.228;2022-11-02T15:26:52;3.70;;;1.50;;
12719;SDS011;6424;48.520;11.228;2022-11-02T15:29:44;4.10;;;1.97;;
12719;SDS011;6424;48.520;11.228;2022-11-02T15:32:27;3.73;;;2.10;;
12719;SDS011;6424;48.520;11.228;2022-11-02T15:35:17;4.63;;;1.50;;
12719;SDS011;6424;48.520;11.228;2022-11-02T15:38:00;3.27;;;1.23;;
12719;SDS011;6424;48.520;11.228;2022-11-02T15:49:14;4.93;;;2.50;;
12719;SDS011;6424;48.520;11.228;2022-11-02T16:01:25;5.93;;;3.43;;
12719;SDS011;6424;48.520;11.228;2022-11-02T16:03:53;9.23;;;5.17;;
12719;SDS011;6424;48.520;11.228;2022-11-02T16:06:25;7.33;;;3.53;;
12719;SDS011;6424;48.520;11.228;2022-11-02T16:12:21;5.13;;;2.17;;
12719;SDS011;6424;48.520;11.228;2022-11-02T16:15:10;5.50;;;1.80;;
12719;SDS011;6424;48.520;11.228;2022-11-02T16:17:53;3.60;;;1.70;;
12719;SDS011;6424;48.520;11.228;2022-11-02T16:20:35;4.10;;;1.50;;
12719;SDS011;6424;48.520;11.228;2022-11-02T16:23:21;3.67;;;1.50;;
12719;SDS011;6424;48.520;11.228;2022-11-02T16:26:05;3.07;;;1.60;;
12719;SDS011;6424;48.520;11.228;2022-11-02T16:28:49;5.77;;;4.47;;
12719;SDS011;6424;48.520;11.228;2022-11-02T16:31:34;24.97;;;17.70;;
12719;SDS011;6424;48.520;11.228;2022-11-02T16:34:19;11.67;;;6.40;;
12719;SDS011;6424;48.520;11.228;2022-11-02T16:36:48;3.73;;;1.70;;
12719;SDS011;6424;48.520;11.228;2022-11-02T16:39:16;5.80;;;1.80;;
12719;SDS011;6424;48.520;11.228;2022-11-02T16:42:08;4.57;;;1.40;;
12719;SDS011;6424;48.520;11.228;2022-11-02T16:44:55;3.77;;;1.70;;
12719;SDS011;6424;48.520;11.228;2022-11-02T16:47:40;8.20;;;5.67;;
12719;SDS011;6424;48.520;11.228;2022-11-02T16:50:40;27.47;;;20.37;;
12719;SDS011;6424;48.520;11.228;2022-11-02T16:53:24;49.27;;;35.40;;
12719;SDS011;6424;48.520;11.228;2022-11-02T16:56:15;28.47;;;19.33;;
12719;SDS011;6424;48.520;11.228;2022-11-02T16:59:11;15.83;;;9.27;;
12719;SDS011;6424;48.520;11.228;2022-11-02T17:01:58;11.07;;;7.77;;
12719;SDS011;6424;48.520;11.228;2022-11-02T17:04:41;17.90;;;13.13;;
12719;SDS011;6424;48.520;11.228;2022-11-02T17:07:26;19.40;;;14.10;;
12719;SDS011;6424;48.520;11.228;2022-11-02T17:10:28;21.00;;;14.63;;
12719;SDS011;6424;48.520;11.228;2022-11-02T17:13:13;13.97;;;9.50;;
12719;SDS011;6424;48.520;11.228;2022-11-02T17:15:57;7.17;;;3.80;;
12719;SDS011;6424;48.520;11.228;2022-11-02T17:18:47;8.00;;;4.90;;
12719;SDS011;6424;48.520;11.228;2022-11-02T17:21:28;4.67;;;2.90;;
12719;SDS011;6424;48.520;11.228;2022-11-02T17:24:29;5.27;;;2.20;;
12719;SDS011;6424;48.520;11.228;2022-11-02T17:27:15;7.83;;;4.80;;
12719;SDS011;6424;48.520;11.228;2022-11-02T17:29:42;7.83;;;4.60;;
12719;SDS011;6424;48.520;11.228;2022-11-02T17:32:23;6.77;;;5.17;;
12719;SDS011;6424;48.520;11.228;2022-11-02T17:35:04;8.67;;;5.30;;
12719;SDS011;6424;48.520;11.228;2022-11-02T17:37:53;5.90;;;3.37;;
12719;SDS011;6424;48.520;11.228;2022-11-02T17:40:34;9.03;;;6.87;;
12719;SDS011;6424;48.520;11.228;2022-11-02T17:43:02;5.43;;;3.57;;
12719;SDS011;6424;48.520;11.228;2022-11-02T17:45:42;7.17;;;2.97;;
12719;SDS011;6424;48.520;11.228;2022-11-02T17:48:24;4.87;;;3.30;;
12719;SDS011;6424;48.520;11.228;2022-11-02T17:51:08;5.40;;;2.80;;
12719;SDS011;6424;48.520;11.228;2022-11-02T17:53:52;7.23;;;3.27;;
12719;SDS011;6424;48.520;11.228;2022-11-02T17:56:33;5.70;;;2.97;;
12719;SDS011;6424;48.520;11.228;2022-11-02T17:59:13;3.73;;;2.40;;
12719;SDS011;6424;48.520;11.228;2022-11-02T18:01:54;7.63;;;2.83;;
12719;SDS011;6424;48.520;11.228;2022-11-02T18:04:36;7.77;;;3.27;;
12719;SDS011;6424;48.520;11.228;2022-11-02T18:07:17;9.17;;;5.70;;
12719;SDS011;6424;48.520;11.228;2022-11-02T18:09:58;19.63;;;11.23;;
12719;SDS011;6424;48.520;11.228;2022-11-02T18:12:38;33.03;;;15.17;;
12719;SDS011;6424;48.520;11.228;2022-11-02T18:15:21;39.10;;;19.83;;
12719;SDS011;6424;48.520;11.228;2022-11-02T18:18:03;27.03;;;15.50;;
12719;SDS011;6424;48.520;11.228;2022-11-02T18:20:44;26.00;;;15.87;;
12719;SDS011;6424;48.520;11.228;2022-11-02T18:23:25;20.33;;;10.17;;
12719;SDS011;6424;48.520;11.228;2022-11-02T18:25:50;31.90;;;20.43;;
12719;SDS011;6424;48.520;11.228;2022-11-02T18:28:31;20.33;;;11.43;;
12719;SDS011;6424;48.520;11.228;2022-11-02T18:31:12;23.03;;;13.60;;
12719;SDS011;6424;48.520;11.228;2022-11-02T18:33:53;40.13;;;22.93;;
12719;SDS011;6424;48.520;11.228;2022-11-02T18:36:36;9.57;;;6.03;;